createdAt,value
2018-07-13T00:01:32.011Z,96819.77
2018-07-13T00:03:59.315Z,96824.67
2018-07-13T00:06:26.660Z,96818.80
2018-07-13T00:08:54.032Z,96819.94
2018-07-13T00:11:21.351Z,96816.81
2018-07-13T00:14:24.067Z,96817.66
2018-07-13T00:16:52.585Z,96820.41
2018-07-13T00:19:20.635Z,96832.34
2018-07-13T00:21:47.947Z,96829.95
2018-07-13T00:24:15.306Z,96821.79
2018-07-13T00:26:42.669Z,96821.76
2018-07-13T00:29:10.338Z,96826.91
2018-07-13T00:31:38.500Z,96826.09
2018-07-13T00:34:05.913Z,96828.59
2018-07-13T00:36:33.257Z,96826.28
2018-07-13T00:39:00.560Z,96827.36
2018-07-13T00:41:27.852Z,96828.77
2018-07-13T00:43:55.164Z,96829.77
2018-07-13T00:46:22.793Z,96828.33
2018-07-13T00:48:50.058Z,96830.84
2018-07-13T00:51:17.501Z,96826.35
2018-07-13T00:53:45.059Z,96830.45
2018-07-13T00:56:12.475Z,96829.63
2018-07-13T00:58:39.703Z,96821.71
2018-07-13T01:01:07.093Z,96828.91
2018-07-13T01:03:34.417Z,96829.75
2018-07-13T01:06:02.013Z,96827.70
2018-07-13T01:08:29.276Z,96826.16
2018-07-13T01:10:56.677Z,96823.30
2018-07-13T01:13:23.958Z,96824.38
2018-07-13T01:15:51.243Z,96827.35
2018-07-13T01:18:18.660Z,96828.96
2018-07-13T01:20:45.973Z,96830.04
2018-07-13T01:23:13.336Z,96830.24
2018-07-13T01:25:40.647Z,96830.16
2018-07-13T01:28:08.025Z,96828.46
2018-07-13T01:30:35.637Z,96766.41
2018-07-13T01:33:03.169Z,96829.69
2018-07-13T01:35:30.460Z,96814.29
2018-07-13T01:37:57.738Z,96832.58
2018-07-13T01:40:25.083Z,96839.52
2018-07-13T01:42:52.394Z,96836.16
2018-07-13T01:45:19.669Z,96836.88
2018-07-13T01:47:46.962Z,96836.76
2018-07-13T01:50:14.275Z,96833.64
2018-07-13T01:52:41.615Z,96836.63
2018-07-13T01:55:08.859Z,96832.33
2018-07-13T01:57:36.210Z,96829.70
2018-07-13T02:00:04.252Z,96827.19
2018-07-13T02:02:31.574Z,96833.55
2018-07-13T02:04:58.918Z,96835.77
2018-07-13T02:07:26.214Z,96835.08
2018-07-13T02:09:54.575Z,96832.36
2018-07-13T02:12:21.956Z,96834.05
2018-07-13T02:14:50.855Z,96836.79
2018-07-13T02:17:18.084Z,96846.59
2018-07-13T02:19:45.476Z,96827.06
2018-07-13T02:22:13.053Z,96843.41
2018-07-13T02:24:40.300Z,96839.93
2018-07-13T02:27:07.640Z,96845.91
2018-07-13T02:29:34.976Z,96844.47
2018-07-13T02:32:02.291Z,96841.36
2018-07-13T02:34:29.648Z,96846.73
2018-07-13T02:36:56.914Z,96848.66
2018-07-13T02:39:24.259Z,96849.27
2018-07-13T02:41:51.534Z,96847.46
2018-07-13T02:44:18.856Z,96855.83
2018-07-13T02:46:46.176Z,96855.70
2018-07-13T02:49:13.529Z,96861.30
2018-07-13T02:51:40.798Z,96857.62
2018-07-13T02:54:09.681Z,96857.72
2018-07-13T02:56:37.053Z,96857.62
2018-07-13T02:59:04.351Z,96854.75
2018-07-13T03:01:31.662Z,96859.27
2018-07-13T03:03:58.941Z,96859.05
2018-07-13T03:06:26.227Z,96860.83
2018-07-13T03:08:53.500Z,96857.59
2018-07-13T03:11:20.812Z,96863.23
2018-07-13T03:13:48.300Z,96871.55
2018-07-13T03:16:15.587Z,96871.45
2018-07-13T03:18:42.895Z,96867.98
2018-07-13T03:21:10.184Z,96862.14
2018-07-13T03:23:37.442Z,96871.38
2018-07-13T03:26:04.744Z,96875.31
2018-07-13T03:28:32.119Z,96873.89
2018-07-13T03:30:59.370Z,96868.57
2018-07-13T03:33:26.731Z,96869.03
2018-07-13T03:35:54.081Z,96869.74
2018-07-13T03:38:21.398Z,96869.52
2018-07-13T03:40:48.753Z,96870.70
2018-07-13T03:43:16.068Z,96873.11
2018-07-13T03:45:43.409Z,96872.15
2018-07-13T03:48:10.666Z,96871.09
2018-07-13T03:50:37.940Z,96875.13
2018-07-13T03:53:05.337Z,96873.70
2018-07-13T03:55:32.600Z,96870.27
2018-07-13T03:57:59.906Z,96887.14
2018-07-13T04:00:27.200Z,96884.24
2018-07-13T04:02:54.443Z,96883.36
2018-07-13T04:05:21.734Z,96883.07
2018-07-13T04:07:49.051Z,96879.44
2018-07-13T04:10:16.404Z,96879.45
2018-07-13T04:12:43.690Z,96883.13
2018-07-13T04:15:10.975Z,96883.02
2018-07-13T04:17:38.225Z,96882.92
2018-07-13T04:20:05.558Z,96875.91
2018-07-13T04:22:32.895Z,96879.12
2018-07-13T04:25:00.194Z,96879.28
2018-07-13T04:27:27.610Z,96877.42
2018-07-13T04:29:55.482Z,96870.97
2018-07-13T04:32:22.770Z,96878.63
2018-07-13T04:34:50.109Z,96876.77
2018-07-13T04:37:17.377Z,96873.56
2018-07-13T04:39:44.689Z,96873.45
2018-07-13T04:42:12.000Z,96871.55
2018-07-13T04:44:39.363Z,96869.77
2018-07-13T04:47:06.670Z,96814.14
2018-07-13T04:49:34.230Z,96867.15
2018-07-13T04:52:01.573Z,96871.30
2018-07-13T04:54:28.911Z,96871.92
2018-07-13T04:56:56.406Z,96867.38
2018-07-13T04:59:23.834Z,96871.69
2018-07-13T05:01:51.303Z,96803.81
2018-07-13T05:04:18.732Z,96871.91
2018-07-13T05:06:46.149Z,96875.37
2018-07-13T05:09:13.419Z,96869.77
2018-07-13T05:11:40.750Z,96867.72
2018-07-13T05:14:08.147Z,96870.66
2018-07-13T05:16:35.451Z,96871.34
2018-07-13T05:19:02.763Z,96868.16
2018-07-13T05:21:30.275Z,96866.42
2018-07-13T05:23:57.580Z,96866.94
2018-07-13T05:26:25.124Z,96866.31
2018-07-13T05:28:52.536Z,96864.91
2018-07-13T05:31:19.923Z,96865.19
2018-07-13T05:33:47.281Z,96870.11
2018-07-13T05:36:14.647Z,96867.50
2018-07-13T05:38:42.047Z,96874.14
2018-07-13T05:41:09.359Z,96879.16
2018-07-13T05:43:36.719Z,96883.41
2018-07-13T05:46:04.035Z,96880.85
2018-07-13T05:48:31.844Z,96887.26
2018-07-13T05:51:02.227Z,96885.91
2018-07-13T05:53:32.398Z,96883.11
2018-07-13T05:55:59.829Z,96884.28
2018-07-13T05:58:27.804Z,96885.19
2018-07-13T06:00:55.161Z,96886.58
2018-07-13T06:03:22.439Z,96885.41
2018-07-13T06:05:49.673Z,96887.80
2018-07-13T06:08:17.009Z,96891.48
2018-07-13T06:10:44.425Z,96888.03
2018-07-13T06:13:11.779Z,96893.34
2018-07-13T06:15:39.118Z,96893.03
2018-07-13T06:18:06.460Z,96890.59
2018-07-13T06:20:33.756Z,96889.30
2018-07-13T06:23:01.035Z,96889.50
2018-07-13T06:25:28.406Z,96888.28
2018-07-13T06:27:55.621Z,96889.33
2018-07-13T06:30:22.930Z,96889.98
2018-07-13T06:32:50.269Z,96881.11
2018-07-13T06:35:17.604Z,96894.25
2018-07-13T06:37:44.912Z,96883.98
2018-07-13T06:40:12.224Z,96893.41
2018-07-13T06:42:39.465Z,96892.49
2018-07-13T06:45:06.805Z,96891.30
2018-07-13T06:47:34.106Z,96899.81
2018-07-13T06:50:01.354Z,96887.58
2018-07-13T06:52:28.651Z,96898.30
2018-07-13T06:54:56.314Z,96893.33
2018-07-13T06:57:35.077Z,96900.25
2018-07-13T07:00:11.423Z,96908.66
2018-07-13T07:02:40.721Z,96904.77
2018-07-13T07:06:17.023Z,96906.10
2018-07-13T07:08:45.851Z,96904.63
2018-07-13T07:11:13.182Z,96900.13
2018-07-13T07:13:41.431Z,96897.88
2018-07-13T07:16:08.804Z,96895.55
2018-07-13T07:18:36.306Z,96899.55
2018-07-13T07:21:03.650Z,96896.89
2018-07-13T07:23:32.087Z,96892.88
2018-07-13T07:26:00.152Z,96887.72
2018-07-13T07:28:27.723Z,96889.33
2018-07-13T07:30:55.747Z,96889.86
2018-07-13T07:33:23.250Z,96893.88
2018-07-13T07:35:50.554Z,96893.16
2018-07-13T07:38:18.047Z,96894.67
2018-07-13T07:40:45.584Z,96889.89
2018-07-13T07:43:12.923Z,96895.36
2018-07-13T07:45:40.227Z,96890.08
2018-07-13T07:48:07.561Z,96889.14
2018-07-13T07:50:35.017Z,96892.45
2018-07-13T07:53:02.496Z,96892.06
2018-07-13T07:55:29.928Z,96865.88
2018-07-13T07:57:57.328Z,96886.31
2018-07-13T08:00:24.685Z,96890.17
2018-07-13T08:02:52.174Z,96890.63
2018-07-13T08:05:19.549Z,96892.33
2018-07-13T08:07:46.948Z,96883.91
2018-07-13T08:10:14.496Z,96888.23
2018-07-13T08:12:41.874Z,96886.88
2018-07-13T08:15:09.228Z,96887.16
2018-07-13T08:17:36.601Z,96886.47
2018-07-13T08:20:04.313Z,96887.91
2018-07-13T08:22:32.497Z,96883.02
2018-07-13T08:25:00.186Z,96877.41
2018-07-13T08:27:43.596Z,96875.56
2018-07-13T08:30:24.222Z,96869.39
2018-07-13T08:32:51.540Z,96871.45
2018-07-13T08:35:18.799Z,96861.44
2018-07-13T08:37:46.117Z,96866.91
2018-07-13T08:40:13.451Z,96857.80
2018-07-13T08:42:41.255Z,96861.48
2018-07-13T08:45:08.691Z,96863.28
2018-07-13T08:47:35.932Z,96862.19
2018-07-13T08:50:03.539Z,96863.44
2018-07-13T08:52:31.013Z,96866.59
2018-07-13T08:55:04.275Z,96869.02
2018-07-13T08:57:31.705Z,96871.58
2018-07-13T08:59:59.011Z,96865.00
2018-07-13T09:02:26.390Z,96864.72
2018-07-13T09:04:53.725Z,96860.84
2018-07-13T09:07:21.060Z,96863.73
2018-07-13T09:09:48.314Z,96867.42
2018-07-13T09:12:15.611Z,96861.53
2018-07-13T09:14:43.484Z,96871.11
2018-07-13T09:17:10.838Z,96878.31
2018-07-13T09:19:38.185Z,96879.06
2018-07-13T09:22:05.699Z,96874.38
2018-07-13T09:24:33.020Z,96876.81
2018-07-13T09:27:00.319Z,96875.94
2018-07-13T09:29:27.673Z,96873.19
2018-07-13T09:31:55.015Z,96881.11
2018-07-13T09:34:22.369Z,96873.50
2018-07-13T09:36:49.787Z,96871.59
2018-07-13T09:39:17.189Z,96881.18
2018-07-13T09:41:44.481Z,96878.93
2018-07-13T09:44:11.819Z,96882.01
2018-07-13T09:46:39.149Z,96874.13
2018-07-13T09:49:06.554Z,96877.61
2018-07-13T09:51:33.957Z,96874.20
2018-07-13T09:54:01.536Z,96876.53
2018-07-13T09:56:28.693Z,96871.66
2018-07-13T09:58:55.982Z,96869.37
2018-07-13T10:01:23.665Z,96872.53
2018-07-13T10:03:51.038Z,96873.69
2018-07-13T10:06:18.460Z,96877.46
2018-07-13T10:08:45.789Z,96869.37
2018-07-13T10:11:13.216Z,96871.22
2018-07-13T10:13:40.672Z,96869.25
2018-07-13T10:16:07.998Z,96875.50
2018-07-13T10:18:35.411Z,96873.69
2018-07-13T10:21:02.725Z,96876.73
2018-07-13T10:23:30.445Z,96875.53
2018-07-13T10:26:02.785Z,96875.23
2018-07-13T10:28:31.075Z,96878.33
2018-07-13T10:30:58.460Z,96870.86
2018-07-13T10:33:25.866Z,96874.69
2018-07-13T10:35:53.391Z,96873.73
2018-07-13T10:38:20.717Z,96880.66
2018-07-13T10:40:48.046Z,96883.37
2018-07-13T10:43:15.400Z,96878.44
2018-07-13T10:45:42.789Z,96879.82
2018-07-13T10:48:10.008Z,96876.52
2018-07-13T10:50:37.282Z,96877.56
2018-07-13T10:53:04.509Z,96879.62
2018-07-13T10:55:31.748Z,96874.92
2018-07-13T10:57:59.082Z,96874.70
2018-07-13T11:00:26.483Z,96876.08
2018-07-13T11:02:54.000Z,96871.66
2018-07-13T11:05:21.337Z,96868.13
2018-07-13T11:07:48.685Z,96872.17
2018-07-13T11:10:15.963Z,96867.05
2018-07-13T11:12:43.311Z,96870.84
2018-07-13T11:15:10.662Z,96871.44
2018-07-13T11:17:37.943Z,96863.06
2018-07-13T11:20:05.307Z,96866.41
2018-07-13T11:22:32.621Z,96859.74
2018-07-13T11:24:59.912Z,96861.22
2018-07-13T11:27:27.151Z,96859.77
2018-07-13T11:29:54.440Z,96854.81
2018-07-13T11:32:21.752Z,96847.70
2018-07-13T11:34:49.268Z,96842.56
2018-07-13T11:37:16.569Z,96842.53
2018-07-13T11:39:43.853Z,96846.08
2018-07-13T11:42:11.142Z,96850.81
2018-07-13T11:44:38.409Z,96847.28
2018-07-13T11:47:05.684Z,96840.55
2018-07-13T11:49:32.945Z,96844.41
2018-07-13T11:52:00.235Z,96837.80
2018-07-13T11:54:27.564Z,96840.72
2018-07-13T11:56:54.833Z,96844.23
2018-07-13T11:59:22.233Z,96830.13
2018-07-13T12:01:49.602Z,96834.08
2018-07-13T12:04:16.808Z,96823.85
2018-07-13T12:06:44.089Z,96826.20
2018-07-13T12:09:11.445Z,96818.25
2018-07-13T12:11:38.740Z,96811.58
2018-07-13T12:14:06.033Z,96818.42
2018-07-13T12:16:33.421Z,96812.36
2018-07-13T12:19:00.632Z,96809.00
2018-07-13T12:21:27.921Z,96797.97
2018-07-13T12:23:55.280Z,96803.35
2018-07-13T12:26:22.613Z,96799.73
2018-07-13T12:28:50.085Z,96793.67
2018-07-13T12:31:17.391Z,96799.22
2018-07-13T12:33:44.609Z,96802.12
2018-07-13T12:36:11.908Z,96807.86
2018-07-13T12:38:39.284Z,96798.22
2018-07-13T12:41:06.680Z,96800.98
2018-07-13T12:43:34.047Z,96797.55
2018-07-13T12:46:01.364Z,96798.39
2018-07-13T12:48:28.697Z,96793.52
2018-07-13T12:50:56.106Z,96798.58
2018-07-13T12:53:23.500Z,96795.38
2018-07-13T12:55:50.835Z,96793.05
2018-07-13T12:58:18.131Z,96792.82
2018-07-13T13:00:45.482Z,96786.95
2018-07-13T13:03:12.895Z,96782.25
2018-07-13T13:05:40.296Z,96782.52
2018-07-13T13:08:07.499Z,96782.91
2018-07-13T13:10:34.814Z,96782.99
2018-07-13T13:13:02.159Z,96772.73
2018-07-13T13:15:29.405Z,96772.65
2018-07-13T13:17:56.672Z,96773.24
2018-07-13T13:20:23.918Z,96769.66
2018-07-13T13:22:51.221Z,96773.23
2018-07-13T13:25:18.520Z,96771.70
2018-07-13T13:27:45.833Z,96774.94
2018-07-13T13:30:13.184Z,96761.23
2018-07-13T13:32:40.503Z,96769.28
2018-07-13T13:35:07.756Z,96758.97
2018-07-13T13:37:35.000Z,96756.73
2018-07-13T13:40:02.333Z,96765.27
2018-07-13T13:42:29.662Z,96761.30
2018-07-13T13:44:56.958Z,96756.76
2018-07-13T13:47:24.260Z,96768.28
2018-07-13T13:49:51.575Z,96766.63
2018-07-13T13:52:18.899Z,96770.60
2018-07-13T13:54:46.233Z,96768.60
2018-07-13T13:57:13.543Z,96774.14
2018-07-13T13:59:40.878Z,96774.02
2018-07-13T14:02:08.269Z,96772.82
2018-07-13T14:04:35.586Z,96774.66
2018-07-13T14:07:02.863Z,96768.78
2018-07-13T14:09:30.123Z,96772.91
2018-07-13T14:11:57.483Z,96767.44
2018-07-13T14:14:24.892Z,96765.80
2018-07-13T14:16:52.169Z,96756.97
2018-07-13T14:19:28.607Z,96756.55
2018-07-13T14:21:55.904Z,96759.73
2018-07-13T14:24:24.744Z,96759.04
2018-07-13T14:26:57.238Z,96763.36
2018-07-13T14:29:24.573Z,96765.16
2018-07-13T14:31:51.958Z,96760.61
2018-07-13T14:34:20.462Z,96768.97
2018-07-13T14:36:47.780Z,96757.66
2018-07-13T14:39:15.058Z,96761.07
2018-07-13T14:41:42.437Z,96750.72
2018-07-13T14:44:15.201Z,96757.63
2018-07-13T14:46:42.513Z,96751.47
2018-07-13T14:49:09.874Z,96738.91
2018-07-13T14:51:37.211Z,96754.20
2018-07-13T14:54:05.844Z,96749.56
2018-07-13T14:56:33.352Z,96751.02
2018-07-13T14:59:00.673Z,96750.61
2018-07-13T15:01:28.039Z,96753.33
2018-07-13T15:03:55.486Z,96746.61
2018-07-13T15:06:22.916Z,96745.27
2018-07-13T15:08:50.121Z,96742.64
2018-07-13T15:11:17.475Z,96742.81
2018-07-13T15:13:44.797Z,96738.16
2018-07-13T15:16:12.095Z,96728.00
2018-07-13T15:18:39.340Z,96738.77
2018-07-13T15:21:06.622Z,96733.92
2018-07-13T15:23:33.973Z,96728.58
2018-07-13T15:26:01.279Z,96728.06
2018-07-13T15:28:28.546Z,96723.18
2018-07-13T15:30:55.875Z,96725.82
2018-07-13T15:33:23.192Z,96727.68
2018-07-13T15:35:50.499Z,96720.34
2018-07-13T15:38:17.711Z,96727.91
2018-07-13T15:40:45.105Z,96728.56
2018-07-13T15:43:25.882Z,96726.47
2018-07-13T15:45:53.883Z,96723.83
2018-07-13T15:48:32.630Z,96714.58
2018-07-13T15:51:00.111Z,96714.81
2018-07-13T15:53:28.237Z,96717.70
2018-07-13T15:55:56.951Z,96714.69
2018-07-13T15:58:24.422Z,96711.70
2018-07-13T16:00:51.792Z,96712.57
2018-07-13T16:03:19.154Z,96713.16
2018-07-13T16:05:46.710Z,96714.20
2018-07-13T16:08:14.023Z,96702.95
2018-07-13T16:10:41.665Z,96706.80
2018-07-13T16:13:08.961Z,96706.72
2018-07-13T16:15:36.203Z,96703.88
2018-07-13T16:18:13.300Z,96698.61
2018-07-13T16:23:17.401Z,96702.52
2018-07-13T16:25:44.695Z,96700.50
2018-07-13T16:28:13.576Z,96697.98
2018-07-13T16:30:40.849Z,96691.25
2018-07-13T16:33:08.176Z,96695.75
2018-07-13T16:35:35.657Z,96690.11
2018-07-13T16:38:02.958Z,96691.00
2018-07-13T16:40:30.238Z,96692.96
2018-07-13T16:42:57.595Z,96685.79
2018-07-13T16:45:24.934Z,96685.95
2018-07-13T16:47:52.222Z,96691.58
2018-07-13T16:50:19.494Z,96686.88
2018-07-13T16:52:46.781Z,96685.03
2018-07-13T16:55:14.137Z,96686.23
2018-07-13T16:57:41.412Z,96681.00
2018-07-13T17:00:08.772Z,96681.20
2018-07-13T17:02:36.099Z,96682.38
2018-07-13T17:05:03.495Z,96681.84
2018-07-13T17:07:30.779Z,96678.55
2018-07-13T17:09:58.037Z,96681.34
2018-07-13T17:12:25.247Z,96681.23
2018-07-13T17:14:52.567Z,96684.77
2018-07-13T17:17:19.737Z,96687.38
2018-07-13T17:19:46.963Z,96685.64
2018-07-13T17:22:14.267Z,96684.70
2018-07-13T17:24:41.535Z,96682.56
2018-07-13T17:27:08.780Z,96676.58
2018-07-13T17:29:35.993Z,96679.17
2018-07-13T17:32:03.220Z,96671.93
2018-07-13T17:34:30.476Z,96681.14
2018-07-13T17:36:57.710Z,96676.08
2018-07-13T17:39:24.967Z,96675.97
2018-07-13T17:41:52.201Z,96676.79
2018-07-13T17:44:19.506Z,96679.76
2018-07-13T17:46:46.777Z,96662.33
2018-07-13T17:49:14.007Z,96687.38
2018-07-13T17:51:41.200Z,96682.94
2018-07-13T17:54:08.410Z,96674.67
2018-07-13T17:56:35.670Z,96673.95
2018-07-13T17:59:02.896Z,96677.66
2018-07-13T18:01:30.190Z,96684.14
2018-07-13T18:03:57.412Z,96685.52
2018-07-13T18:06:24.679Z,96674.45
2018-07-13T18:08:51.928Z,96692.64
2018-07-13T18:11:19.144Z,96688.39
2018-07-13T18:13:46.429Z,96691.17
2018-07-13T18:16:13.694Z,96691.84
2018-07-13T18:18:40.895Z,96690.08
2018-07-13T18:21:08.137Z,96689.16
2018-07-13T18:23:35.385Z,96687.58
2018-07-13T18:26:02.716Z,96686.88
2018-07-13T18:28:29.933Z,96686.73
2018-07-13T18:30:57.211Z,96686.91
2018-07-13T18:33:24.487Z,96679.46
2018-07-13T18:35:51.647Z,96687.83
2018-07-13T18:38:18.923Z,96675.27
2018-07-13T18:40:46.455Z,96685.03
2018-07-13T18:43:13.680Z,96692.51
2018-07-13T18:45:40.869Z,96692.87
2018-07-13T18:48:08.214Z,96694.90
2018-07-13T18:50:35.506Z,96696.77
2018-07-13T18:53:03.520Z,96697.92
2018-07-13T18:55:30.857Z,96703.00
2018-07-13T18:57:59.169Z,96689.30
2018-07-13T19:00:26.387Z,96701.00
2018-07-13T19:02:53.631Z,96700.09
2018-07-13T19:05:21.186Z,96702.25
2018-07-13T19:07:48.426Z,96701.08
2018-07-13T19:10:15.704Z,96706.08
2018-07-13T19:12:42.960Z,96705.66
2018-07-13T19:15:10.204Z,96703.06
2018-07-13T19:17:37.444Z,96708.96
2018-07-13T19:20:04.986Z,96711.91
2018-07-13T19:22:32.233Z,96714.67
2018-07-13T19:24:59.471Z,96707.40
2018-07-13T19:27:26.674Z,96713.84
2018-07-13T19:29:53.915Z,96716.59
2018-07-13T19:32:21.152Z,96721.84
2018-07-13T19:34:48.429Z,96728.03
2018-07-13T19:37:15.643Z,96733.94
2018-07-13T19:39:42.903Z,96738.63
2018-07-13T19:42:10.188Z,96736.91
2018-07-13T19:44:37.433Z,96741.77
2018-07-13T19:47:04.984Z,96739.73
2018-07-13T19:49:32.281Z,96748.97
2018-07-13T19:51:59.525Z,96750.31
2018-07-13T19:54:26.796Z,96758.20
2018-07-13T19:56:54.098Z,96760.45
2018-07-13T19:59:21.359Z,96757.64
2018-07-13T20:01:48.605Z,96757.75
2018-07-13T20:04:15.915Z,96761.61
2018-07-13T20:06:43.214Z,96766.94
2018-07-13T20:09:10.385Z,96764.17
2018-07-13T20:11:37.808Z,96772.00
2018-07-13T20:14:05.290Z,96777.00
2018-07-13T20:16:32.598Z,96779.17
2018-07-13T20:19:00.082Z,96777.52
2018-07-13T20:21:27.886Z,96781.03
2018-07-13T20:23:56.031Z,96779.23
2018-07-13T20:26:23.554Z,96779.75
2018-07-13T20:28:52.016Z,96772.98
2018-07-13T20:31:19.316Z,96771.36
2018-07-13T20:33:46.565Z,96777.20
2018-07-13T20:36:14.017Z,96777.69
2018-07-13T20:38:41.234Z,96790.36
2018-07-13T20:41:08.513Z,96786.20
2018-07-13T20:43:35.721Z,96795.53
2018-07-13T20:46:03.101Z,96797.88
2018-07-13T20:48:30.254Z,96796.53
2018-07-13T20:50:57.523Z,96795.89
2018-07-13T20:53:24.789Z,96798.22
2018-07-13T20:55:52.082Z,96800.22
2018-07-13T20:58:19.319Z,96792.09
2018-07-13T21:00:46.610Z,96795.59
2018-07-13T21:03:13.863Z,96801.08
2018-07-13T21:05:41.051Z,96800.87
2018-07-13T21:08:08.373Z,96799.20
2018-07-13T21:10:35.624Z,96805.20
2018-07-13T21:13:02.898Z,96806.52
2018-07-13T21:15:30.121Z,96808.49
2018-07-13T21:17:57.394Z,96804.83
2018-07-13T21:20:24.626Z,96807.66
2018-07-13T21:22:51.847Z,96814.63
2018-07-13T21:25:19.085Z,96822.73
2018-07-13T21:27:46.402Z,96816.75
2018-07-13T21:30:13.726Z,96824.28
2018-07-13T21:32:40.903Z,96825.58
2018-07-13T21:35:08.197Z,96823.86
2018-07-13T21:37:35.480Z,96819.49
2018-07-13T21:40:02.776Z,96822.11
2018-07-13T21:42:30.076Z,96816.14
2018-07-13T21:44:57.302Z,96819.61
2018-07-13T21:47:24.578Z,96820.08
2018-07-13T21:49:51.777Z,96814.63
2018-07-13T21:52:18.992Z,96808.96
2018-07-13T21:54:46.242Z,96806.20
2018-07-13T21:57:13.543Z,96808.41
2018-07-13T21:59:40.763Z,96809.36
2018-07-13T22:02:08.056Z,96810.64
2018-07-13T22:04:35.238Z,96802.80
2018-07-13T22:07:02.575Z,96809.09
2018-07-13T22:09:29.773Z,96812.78
2018-07-13T22:11:57.032Z,96817.27
2018-07-13T22:14:24.342Z,96813.96
2018-07-13T22:16:51.574Z,96811.74
2018-07-13T22:21:45.553Z,96813.16
2018-07-13T22:24:12.750Z,96816.80
2018-07-13T22:26:40.014Z,96828.48
2018-07-13T22:29:07.304Z,96821.72
2018-07-13T22:31:34.541Z,96828.61
2018-07-13T22:34:01.777Z,96822.40
2018-07-13T22:36:29.059Z,96823.25
2018-07-13T22:38:56.307Z,96820.02
2018-07-13T22:41:23.581Z,96810.91
2018-07-13T22:43:50.772Z,96823.25
2018-07-13T22:46:18.094Z,96819.14
2018-07-13T22:48:45.388Z,96818.63
2018-07-13T22:51:12.674Z,96813.99
2018-07-13T22:53:39.849Z,96812.61
2018-07-13T22:56:07.155Z,96810.61
2018-07-13T22:58:34.496Z,96810.76
2018-07-13T23:01:01.781Z,96814.14
2018-07-13T23:03:29.882Z,96805.78
2018-07-13T23:05:57.555Z,96806.38
2018-07-13T23:08:24.803Z,96811.08
2018-07-13T23:10:52.070Z,96813.20
2018-07-13T23:13:19.259Z,96814.33
2018-07-13T23:15:46.422Z,96802.19
2018-07-13T23:18:13.695Z,96820.20
2018-07-13T23:20:40.951Z,96825.33
2018-07-13T23:23:08.283Z,96827.64
2018-07-13T23:25:35.559Z,96824.09
2018-07-13T23:28:02.842Z,96829.30
2018-07-13T23:30:30.042Z,96825.41
2018-07-13T23:32:57.333Z,96814.36
2018-07-13T23:35:24.650Z,96815.79
2018-07-13T23:37:52.138Z,96813.16
2018-07-13T23:40:19.403Z,96813.95
2018-07-13T23:42:46.644Z,96794.56
2018-07-13T23:45:13.939Z,96814.62
2018-07-13T23:47:41.232Z,96812.73
2018-07-13T23:50:08.508Z,96815.03
2018-07-13T23:52:35.748Z,96808.97
2018-07-13T23:55:03.342Z,96815.30
2018-07-13T23:57:30.611Z,96811.31
2018-07-13T23:59:57.867Z,96745.47
